sensor_id;sensor_type;location;lat;lon;timestamp;P1;durP1;ratioP1;P2;durP2;ratioP2
18973;SDS011;9621;48.690;9.466;2023-05-10T00:02:02;4.07;;;1.10;;
18973;SDS011;9621;48.690;9.466;2023-05-10T00:04:29;4.05;;;1.27;;
18973;SDS011;9621;48.690;9.466;2023-05-10T00:06:56;1.25;;;1.05;;
18973;SDS011;9621;48.690;9.466;2023-05-10T00:09:23;1.63;;;1.20;;
18973;SDS011;9621;48.690;9.466;2023-05-10T00:11:49;1.30;;;0.90;;
18973;SDS011;9621;48.690;9.466;2023-05-10T00:14:16;1.25;;;0.95;;
18973;SDS011;9621;48.690;9.466;2023-05-10T00:16:45;2.35;;;1.17;;
18973;SDS011;9621;48.690;9.466;2023-05-10T00:19:11;1.08;;;0.80;;
18973;SDS011;9621;48.690;9.466;2023-05-10T00:21:38;2.10;;;0.90;;
18973;SDS011;9621;48.690;9.466;2023-05-10T00:24:05;1.17;;;1.00;;
18973;SDS011;9621;48.690;9.466;2023-05-10T00:26:32;2.28;;;0.95;;
18973;SDS011;9621;48.690;9.466;2023-05-10T00:28:59;3.28;;;0.95;;
18973;SDS011;9621;48.690;9.466;2023-05-10T00:31:26;1.20;;;0.90;;
18973;SDS011;9621;48.690;9.466;2023-05-10T00:33:54;0.80;;;0.80;;
18973;SDS011;9621;48.690;9.466;2023-05-10T00:36:22;3.95;;;1.50;;
18973;SDS011;9621;48.690;9.466;2023-05-10T00:38:49;2.33;;;1.17;;
18973;SDS011;9621;48.690;9.466;2023-05-10T00:41:16;3.33;;;0.90;;
18973;SDS011;9621;48.690;9.466;2023-05-10T00:43:42;1.92;;;0.90;;
18973;SDS011;9621;48.690;9.466;2023-05-10T00:46:10;2.00;;;0.90;;
18973;SDS011;9621;48.690;9.466;2023-05-10T00:48:37;1.25;;;0.90;;
18973;SDS011;9621;48.690;9.466;2023-05-10T00:51:05;2.30;;;1.08;;
18973;SDS011;9621;48.690;9.466;2023-05-10T00:53:32;1.20;;;1.08;;
18973;SDS011;9621;48.690;9.466;2023-05-10T00:56:01;3.95;;;1.20;;
18973;SDS011;9621;48.690;9.466;2023-05-10T00:58:28;1.25;;;1.00;;
18973;SDS011;9621;48.690;9.466;2023-05-10T01:00:56;4.90;;;0.93;;
18973;SDS011;9621;48.690;9.466;2023-05-10T01:03:24;3.53;;;0.90;;
18973;SDS011;9621;48.690;9.466;2023-05-10T01:05:51;0.98;;;0.63;;
18973;SDS011;9621;48.690;9.466;2023-05-10T01:08:19;0.68;;;0.60;;
18973;SDS011;9621;48.690;9.466;2023-05-10T01:10:46;0.77;;;0.70;;
18973;SDS011;9621;48.690;9.466;2023-05-10T01:13:15;1.73;;;0.73;;
18973;SDS011;9621;48.690;9.466;2023-05-10T01:15:52;0.70;;;0.63;;
18973;SDS011;9621;48.690;9.466;2023-05-10T01:18:19;0.63;;;0.60;;
18973;SDS011;9621;48.690;9.466;2023-05-10T01:20:48;1.50;;;0.77;;
18973;SDS011;9621;48.690;9.466;2023-05-10T01:23:37;0.60;;;0.60;;
18973;SDS011;9621;48.690;9.466;2023-05-10T01:32:17;0.80;;;0.65;;
18973;SDS011;9621;48.690;9.466;2023-05-10T01:34:53;0.60;;;0.60;;
18973;SDS011;9621;48.690;9.466;2023-05-10T01:37:28;1.42;;;0.60;;
18973;SDS011;9621;48.690;9.466;2023-05-10T01:40:03;3.70;;;0.70;;
18973;SDS011;9621;48.690;9.466;2023-05-10T01:42:40;0.63;;;0.63;;
18973;SDS011;9621;48.690;9.466;2023-05-10T01:45:14;0.63;;;0.60;;
18973;SDS011;9621;48.690;9.466;2023-05-10T01:47:48;1.23;;;0.57;;
18973;SDS011;9621;48.690;9.466;2023-05-10T01:50:22;0.98;;;0.75;;
18973;SDS011;9621;48.690;9.466;2023-05-10T01:52:54;1.30;;;0.63;;
18973;SDS011;9621;48.690;9.466;2023-05-10T01:55:24;1.33;;;0.60;;
18973;SDS011;9621;48.690;9.466;2023-05-10T01:57:56;2.30;;;0.70;;
18973;SDS011;9621;48.690;9.466;2023-05-10T02:00:27;2.38;;;0.55;;
18973;SDS011;9621;48.690;9.466;2023-05-10T02:02:57;0.80;;;0.70;;
18973;SDS011;9621;48.690;9.466;2023-05-10T02:05:27;1.67;;;1.00;;
18973;SDS011;9621;48.690;9.466;2023-05-10T02:07:57;2.20;;;0.70;;
18973;SDS011;9621;48.690;9.466;2023-05-10T02:10:25;1.70;;;0.50;;
18973;SDS011;9621;48.690;9.466;2023-05-10T02:12:53;2.75;;;0.60;;
18973;SDS011;9621;48.690;9.466;2023-05-10T02:15:24;0.50;;;0.50;;
18973;SDS011;9621;48.690;9.466;2023-05-10T02:17:53;2.58;;;0.50;;
18973;SDS011;9621;48.690;9.466;2023-05-10T02:20:23;0.90;;;0.70;;
18973;SDS011;9621;48.690;9.466;2023-05-10T02:22:52;1.00;;;0.50;;
18973;SDS011;9621;48.690;9.466;2023-05-10T02:25:22;0.60;;;0.60;;
18973;SDS011;9621;48.690;9.466;2023-05-10T02:27:51;0.60;;;0.60;;
18973;SDS011;9621;48.690;9.466;2023-05-10T02:30:22;0.80;;;0.50;;
18973;SDS011;9621;48.690;9.466;2023-05-10T02:32:49;2.85;;;0.70;;
18973;SDS011;9621;48.690;9.466;2023-05-10T02:35:17;2.88;;;0.70;;
18973;SDS011;9621;48.690;9.466;2023-05-10T02:37:47;2.28;;;0.55;;
18973;SDS011;9621;48.690;9.466;2023-05-10T02:40:14;2.28;;;0.60;;
18973;SDS011;9621;48.690;9.466;2023-05-10T02:42:43;2.00;;;0.60;;
18973;SDS011;9621;48.690;9.466;2023-05-10T02:45:15;0.70;;;0.60;;
18973;SDS011;9621;48.690;9.466;2023-05-10T02:47:45;2.55;;;0.43;;
18973;SDS011;9621;48.690;9.466;2023-05-10T02:50:12;0.52;;;0.52;;
18973;SDS011;9621;48.690;9.466;2023-05-10T02:52:40;1.17;;;0.63;;
18973;SDS011;9621;48.690;9.466;2023-05-10T02:55:14;0.57;;;0.55;;
18973;SDS011;9621;48.690;9.466;2023-05-10T02:57:43;1.58;;;0.50;;
18973;SDS011;9621;48.690;9.466;2023-05-10T03:00:15;1.38;;;0.55;;
18973;SDS011;9621;48.690;9.466;2023-05-10T03:02:42;1.38;;;0.60;;
18973;SDS011;9621;48.690;9.466;2023-05-10T03:05:09;0.75;;;0.60;;
18973;SDS011;9621;48.690;9.466;2023-05-10T03:07:36;0.80;;;0.60;;
18973;SDS011;9621;48.690;9.466;2023-05-10T03:10:03;0.90;;;0.65;;
18973;SDS011;9621;48.690;9.466;2023-05-10T03:12:37;0.75;;;0.70;;
18973;SDS011;9621;48.690;9.466;2023-05-10T03:15:14;1.40;;;0.80;;
18973;SDS011;9621;48.690;9.466;2023-05-10T03:17:50;3.40;;;0.70;;
18973;SDS011;9621;48.690;9.466;2023-05-10T03:20:22;1.85;;;0.80;;
18973;SDS011;9621;48.690;9.466;2023-05-10T03:22:53;0.85;;;0.52;;
18973;SDS011;9621;48.690;9.466;2023-05-10T03:25:24;0.90;;;0.60;;
18973;SDS011;9621;48.690;9.466;2023-05-10T03:27:53;0.70;;;0.60;;
18973;SDS011;9621;48.690;9.466;2023-05-10T03:30:22;3.97;;;0.63;;
18973;SDS011;9621;48.690;9.466;2023-05-10T03:32:51;2.47;;;0.75;;
18973;SDS011;9621;48.690;9.466;2023-05-10T03:35:17;0.70;;;0.60;;
18973;SDS011;9621;48.690;9.466;2023-05-10T03:37:44;2.78;;;0.90;;
18973;SDS011;9621;48.690;9.466;2023-05-10T03:40:11;4.40;;;0.93;;
18973;SDS011;9621;48.690;9.466;2023-05-10T03:42:39;0.80;;;0.80;;
18973;SDS011;9621;48.690;9.466;2023-05-10T03:45:09;0.85;;;0.60;;
18973;SDS011;9621;48.690;9.466;2023-05-10T03:47:36;4.45;;;0.98;;
18973;SDS011;9621;48.690;9.466;2023-05-10T03:50:04;3.35;;;0.70;;
18973;SDS011;9621;48.690;9.466;2023-05-10T03:52:32;4.90;;;0.82;;
18973;SDS011;9621;48.690;9.466;2023-05-10T03:54:59;1.52;;;0.88;;
18973;SDS011;9621;48.690;9.466;2023-05-10T03:57:28;3.30;;;0.80;;
18973;SDS011;9621;48.690;9.466;2023-05-10T03:59:55;1.48;;;0.90;;
18973;SDS011;9621;48.690;9.466;2023-05-10T04:02:23;1.00;;;0.70;;
18973;SDS011;9621;48.690;9.466;2023-05-10T04:04:50;0.82;;;0.70;;
18973;SDS011;9621;48.690;9.466;2023-05-10T04:07:17;1.30;;;0.80;;
18973;SDS011;9621;48.690;9.466;2023-05-10T04:09:44;2.50;;;0.82;;
18973;SDS011;9621;48.690;9.466;2023-05-10T04:12:11;1.80;;;0.70;;
18973;SDS011;9621;48.690;9.466;2023-05-10T04:14:38;1.77;;;0.60;;
18973;SDS011;9621;48.690;9.466;2023-05-10T04:17:04;1.98;;;0.77;;
18973;SDS011;9621;48.690;9.466;2023-05-10T04:19:33;1.38;;;0.90;;
18973;SDS011;9621;48.690;9.466;2023-05-10T04:22:01;3.38;;;0.90;;
18973;SDS011;9621;48.690;9.466;2023-05-10T04:24:28;1.67;;;0.70;;
18973;SDS011;9621;48.690;9.466;2023-05-10T04:26:56;0.80;;;0.70;;
18973;SDS011;9621;48.690;9.466;2023-05-10T04:29:23;4.10;;;0.80;;
18973;SDS011;9621;48.690;9.466;2023-05-10T04:31:50;2.90;;;0.90;;
18973;SDS011;9621;48.690;9.466;2023-05-10T04:34:17;1.65;;;0.85;;
18973;SDS011;9621;48.690;9.466;2023-05-10T04:36:45;1.33;;;0.80;;
18973;SDS011;9621;48.690;9.466;2023-05-10T04:39:12;1.13;;;0.77;;
18973;SDS011;9621;48.690;9.466;2023-05-10T04:41:39;0.80;;;0.80;;
18973;SDS011;9621;48.690;9.466;2023-05-10T04:44:06;5.30;;;1.00;;
18973;SDS011;9621;48.690;9.466;2023-05-10T04:46:33;1.50;;;0.80;;
18973;SDS011;9621;48.690;9.466;2023-05-10T04:49:00;3.63;;;0.80;;
18973;SDS011;9621;48.690;9.466;2023-05-10T04:51:27;1.52;;;0.80;;
18973;SDS011;9621;48.690;9.466;2023-05-10T04:53:56;1.63;;;1.10;;
18973;SDS011;9621;48.690;9.466;2023-05-10T04:56:23;0.77;;;0.70;;
18973;SDS011;9621;48.690;9.466;2023-05-10T04:58:50;1.90;;;1.10;;
18973;SDS011;9621;48.690;9.466;2023-05-10T05:01:17;1.30;;;0.80;;
18973;SDS011;9621;48.690;9.466;2023-05-10T05:03:43;2.42;;;0.85;;
18973;SDS011;9621;48.690;9.466;2023-05-10T05:06:11;2.28;;;0.93;;
18973;SDS011;9621;48.690;9.466;2023-05-10T05:08:37;2.65;;;1.02;;
18973;SDS011;9621;48.690;9.466;2023-05-10T05:11:06;1.67;;;1.05;;
18973;SDS011;9621;48.690;9.466;2023-05-10T05:13:32;1.25;;;0.90;;
18973;SDS011;9621;48.690;9.466;2023-05-10T05:16:00;3.00;;;0.88;;
18973;SDS011;9621;48.690;9.466;2023-05-10T05:18:27;0.80;;;0.80;;
18973;SDS011;9621;48.690;9.466;2023-05-10T05:20:54;1.65;;;0.90;;
18973;SDS011;9621;48.690;9.466;2023-05-10T05:23:21;1.17;;;0.80;;
18973;SDS011;9621;48.690;9.466;2023-05-10T05:25:49;1.40;;;1.05;;
18973;SDS011;9621;48.690;9.466;2023-05-10T05:28:19;2.35;;;1.30;;
18973;SDS011;9621;48.690;9.466;2023-05-10T05:30:46;3.92;;;1.05;;
18973;SDS011;9621;48.690;9.466;2023-05-10T05:33:13;3.38;;;1.00;;
18973;SDS011;9621;48.690;9.466;2023-05-10T05:35:41;1.42;;;0.90;;
18973;SDS011;9621;48.690;9.466;2023-05-10T05:38:12;8.27;;;1.00;;
18973;SDS011;9621;48.690;9.466;2023-05-10T05:40:39;2.60;;;1.00;;
18973;SDS011;9621;48.690;9.466;2023-05-10T05:43:06;1.27;;;1.17;;
18973;SDS011;9621;48.690;9.466;2023-05-10T05:45:34;1.67;;;1.00;;
18973;SDS011;9621;48.690;9.466;2023-05-10T05:48:01;2.30;;;1.02;;
18973;SDS011;9621;48.690;9.466;2023-05-10T05:50:28;2.35;;;1.05;;
18973;SDS011;9621;48.690;9.466;2023-05-10T05:52:55;1.55;;;1.08;;
18973;SDS011;9621;48.690;9.466;2023-05-10T05:55:22;1.33;;;0.88;;
18973;SDS011;9621;48.690;9.466;2023-05-10T05:57:50;1.08;;;0.82;;
18973;SDS011;9621;48.690;9.466;2023-05-10T06:00:17;3.00;;;1.00;;
18973;SDS011;9621;48.690;9.466;2023-05-10T06:02:46;2.47;;;0.90;;
18973;SDS011;9621;48.690;9.466;2023-05-10T06:05:12;1.98;;;1.00;;
18973;SDS011;9621;48.690;9.466;2023-05-10T06:07:40;2.30;;;1.02;;
18973;SDS011;9621;48.690;9.466;2023-05-10T06:10:07;1.63;;;1.08;;
18973;SDS011;9621;48.690;9.466;2023-05-10T06:12:35;1.15;;;0.93;;
18973;SDS011;9621;48.690;9.466;2023-05-10T06:15:02;1.67;;;1.00;;
18973;SDS011;9621;48.690;9.466;2023-05-10T06:17:30;1.42;;;1.10;;
18973;SDS011;9621;48.690;9.466;2023-05-10T06:19:58;1.23;;;1.13;;
18973;SDS011;9621;48.690;9.466;2023-05-10T06:22:25;2.17;;;1.40;;
18973;SDS011;9621;48.690;9.466;2023-05-10T06:24:51;1.30;;;1.00;;
18973;SDS011;9621;48.690;9.466;2023-05-10T06:27:18;3.20;;;1.08;;
18973;SDS011;9621;48.690;9.466;2023-05-10T06:29:45;1.10;;;0.90;;
18973;SDS011;9621;48.690;9.466;2023-05-10T06:32:12;1.73;;;1.00;;
18973;SDS011;9621;48.690;9.466;2023-05-10T06:34:39;2.53;;;1.00;;
18973;SDS011;9621;48.690;9.466;2023-05-10T06:37:07;2.88;;;0.98;;
18973;SDS011;9621;48.690;9.466;2023-05-10T06:39:34;1.98;;;1.00;;
18973;SDS011;9621;48.690;9.466;2023-05-10T06:42:01;3.00;;;1.00;;
18973;SDS011;9621;48.690;9.466;2023-05-10T06:44:29;3.65;;;1.10;;
18973;SDS011;9621;48.690;9.466;2023-05-10T06:46:56;3.15;;;1.40;;
18973;SDS011;9621;48.690;9.466;2023-05-10T06:49:23;1.92;;;1.17;;
18973;SDS011;9621;48.690;9.466;2023-05-10T06:51:50;3.97;;;1.10;;
18973;SDS011;9621;48.690;9.466;2023-05-10T06:54:19;2.67;;;1.10;;
18973;SDS011;9621;48.690;9.466;2023-05-10T06:56:45;4.10;;;1.48;;
18973;SDS011;9621;48.690;9.466;2023-05-10T06:59:12;2.05;;;1.05;;
18973;SDS011;9621;48.690;9.466;2023-05-10T07:01:40;2.83;;;1.08;;
18973;SDS011;9621;48.690;9.466;2023-05-10T07:04:07;2.35;;;1.08;;
18973;SDS011;9621;48.690;9.466;2023-05-10T07:06:34;6.00;;;1.30;;
18973;SDS011;9621;48.690;9.466;2023-05-10T07:09:01;1.67;;;1.20;;
18973;SDS011;9621;48.690;9.466;2023-05-10T07:11:30;1.33;;;1.00;;
18973;SDS011;9621;48.690;9.466;2023-05-10T07:13:56;4.97;;;1.58;;
18973;SDS011;9621;48.690;9.466;2023-05-10T07:16:23;2.10;;;1.35;;
18973;SDS011;9621;48.690;9.466;2023-05-10T07:18:50;1.63;;;1.02;;
18973;SDS011;9621;48.690;9.466;2023-05-10T07:21:18;1.50;;;0.80;;
18973;SDS011;9621;48.690;9.466;2023-05-10T07:23:45;1.13;;;0.93;;
18973;SDS011;9621;48.690;9.466;2023-05-10T07:26:12;5.82;;;1.00;;
18973;SDS011;9621;48.690;9.466;2023-05-10T07:28:41;3.30;;;0.82;;
18973;SDS011;9621;48.690;9.466;2023-05-10T07:31:08;2.75;;;1.20;;
18973;SDS011;9621;48.690;9.466;2023-05-10T07:33:35;2.97;;;1.30;;
18973;SDS011;9621;48.690;9.466;2023-05-10T07:36:02;1.55;;;1.13;;
18973;SDS011;9621;48.690;9.466;2023-05-10T07:38:29;4.00;;;1.10;;
18973;SDS011;9621;48.690;9.466;2023-05-10T07:40:56;2.03;;;1.38;;
18973;SDS011;9621;48.690;9.466;2023-05-10T07:43:23;4.05;;;1.20;;
18973;SDS011;9621;48.690;9.466;2023-05-10T07:45:51;2.15;;;1.23;;
18973;SDS011;9621;48.690;9.466;2023-05-10T07:48:18;5.40;;;1.17;;
18973;SDS011;9621;48.690;9.466;2023-05-10T07:50:45;2.78;;;1.20;;
18973;SDS011;9621;48.690;9.466;2023-05-10T07:53:12;2.63;;;0.90;;
18973;SDS011;9621;48.690;9.466;2023-05-10T07:55:39;1.92;;;1.10;;
18973;SDS011;9621;48.690;9.466;2023-05-10T07:58:06;3.53;;;1.13;;
18973;SDS011;9621;48.690;9.466;2023-05-10T08:00:33;1.38;;;1.08;;
18973;SDS011;9621;48.690;9.466;2023-05-10T08:03:02;1.50;;;1.13;;
18973;SDS011;9621;48.690;9.466;2023-05-10T08:05:29;1.23;;;0.93;;
18973;SDS011;9621;48.690;9.466;2023-05-10T08:07:56;2.13;;;1.00;;
18973;SDS011;9621;48.690;9.466;2023-05-10T08:10:24;2.08;;;1.27;;
18973;SDS011;9621;48.690;9.466;2023-05-10T08:12:51;4.10;;;1.10;;
18973;SDS011;9621;48.690;9.466;2023-05-10T08:15:18;1.80;;;1.50;;
18973;SDS011;9621;48.690;9.466;2023-05-10T08:17:45;4.68;;;1.10;;
18973;SDS011;9621;48.690;9.466;2023-05-10T08:20:13;1.52;;;1.00;;
18973;SDS011;9621;48.690;9.466;2023-05-10T08:22:41;1.65;;;1.00;;
18973;SDS011;9621;48.690;9.466;2023-05-10T08:25:08;4.38;;;1.10;;
18973;SDS011;9621;48.690;9.466;2023-05-10T08:27:35;1.40;;;1.00;;
18973;SDS011;9621;48.690;9.466;2023-05-10T08:30:02;1.25;;;0.88;;
18973;SDS011;9621;48.690;9.466;2023-05-10T08:32:29;2.30;;;1.05;;
18973;SDS011;9621;48.690;9.466;2023-05-10T08:34:56;2.25;;;0.80;;
18973;SDS011;9621;48.690;9.466;2023-05-10T08:37:24;2.15;;;0.90;;
18973;SDS011;9621;48.690;9.466;2023-05-10T08:39:51;1.45;;;0.70;;
18973;SDS011;9621;48.690;9.466;2023-05-10T08:42:18;1.77;;;0.90;;
18973;SDS011;9621;48.690;9.466;2023-05-10T08:44:48;1.15;;;0.70;;
18973;SDS011;9621;48.690;9.466;2023-05-10T08:47:16;0.70;;;0.70;;
18973;SDS011;9621;48.690;9.466;2023-05-10T08:49:45;0.80;;;0.70;;
18973;SDS011;9621;48.690;9.466;2023-05-10T08:52:16;1.17;;;0.80;;
18973;SDS011;9621;48.690;9.466;2023-05-10T08:54:45;1.00;;;0.88;;
18973;SDS011;9621;48.690;9.466;2023-05-10T08:57:13;1.33;;;0.85;;
18973;SDS011;9621;48.690;9.466;2023-05-10T08:59:40;2.45;;;0.90;;
18973;SDS011;9621;48.690;9.466;2023-05-10T09:02:07;0.70;;;0.60;;
18973;SDS011;9621;48.690;9.466;2023-05-10T09:04:36;1.38;;;0.50;;
18973;SDS011;9621;48.690;9.466;2023-05-10T09:07:03;2.05;;;0.80;;
18973;SDS011;9621;48.690;9.466;2023-05-10T09:09:30;1.15;;;0.75;;
18973;SDS011;9621;48.690;9.466;2023-05-10T09:11:59;1.20;;;0.60;;
18973;SDS011;9621;48.690;9.466;2023-05-10T09:14:26;2.47;;;0.80;;
18973;SDS011;9621;48.690;9.466;2023-05-10T09:16:53;0.73;;;0.60;;
18973;SDS011;9621;48.690;9.466;2023-05-10T09:19:21;3.58;;;0.65;;
18973;SDS011;9621;48.690;9.466;2023-05-10T09:21:48;1.02;;;0.77;;
18973;SDS011;9621;48.690;9.466;2023-05-10T09:24:15;1.02;;;0.80;;
18973;SDS011;9621;48.690;9.466;2023-05-10T09:26:46;1.10;;;0.98;;
18973;SDS011;9621;48.690;9.466;2023-05-10T09:29:15;3.45;;;2.10;;
18973;SDS011;9621;48.690;9.466;2023-05-10T09:31:43;5.65;;;3.28;;
18973;SDS011;9621;48.690;9.466;2023-05-10T09:34:13;7.88;;;3.92;;
18973;SDS011;9621;48.690;9.466;2023-05-10T09:36:52;3.70;;;2.00;;
18973;SDS011;9621;48.690;9.466;2023-05-10T09:39:21;1.83;;;1.13;;
18973;SDS011;9621;48.690;9.466;2023-05-10T09:41:57;1.48;;;1.10;;
18973;SDS011;9621;48.690;9.466;2023-05-10T09:44:27;3.35;;;1.00;;
18973;SDS011;9621;48.690;9.466;2023-05-10T09:46:54;1.13;;;0.70;;
18973;SDS011;9621;48.690;9.466;2023-05-10T09:49:20;0.88;;;0.70;;
18973;SDS011;9621;48.690;9.466;2023-05-10T09:51:57;1.20;;;0.77;;
18973;SDS011;9621;48.690;9.466;2023-05-10T09:54:27;1.90;;;0.70;;
18973;SDS011;9621;48.690;9.466;2023-05-10T09:56:54;1.27;;;0.80;;
18973;SDS011;9621;48.690;9.466;2023-05-10T09:59:21;0.98;;;0.70;;
18973;SDS011;9621;48.690;9.466;2023-05-10T10:01:53;2.45;;;0.70;;
18973;SDS011;9621;48.690;9.466;2023-05-10T10:04:22;4.15;;;0.82;;
18973;SDS011;9621;48.690;9.466;2023-05-10T10:07:00;2.05;;;0.70;;
18973;SDS011;9621;48.690;9.466;2023-05-10T10:09:27;1.05;;;0.50;;
18973;SDS011;9621;48.690;9.466;2023-05-10T10:11:55;2.97;;;0.70;;
18973;SDS011;9621;48.690;9.466;2023-05-10T10:14:22;3.72;;;0.73;;
18973;SDS011;9621;48.690;9.466;2023-05-10T10:16:49;1.85;;;0.60;;
18973;SDS011;9621;48.690;9.466;2023-05-10T10:19:18;1.27;;;0.77;;
18973;SDS011;9621;48.690;9.466;2023-05-10T10:21:45;1.55;;;0.90;;
18973;SDS011;9621;48.690;9.466;2023-05-10T10:24:12;2.78;;;0.85;;
18973;SDS011;9621;48.690;9.466;2023-05-10T10:26:39;2.15;;;0.93;;
18973;SDS011;9621;48.690;9.466;2023-05-10T10:29:10;3.67;;;1.17;;
18973;SDS011;9621;48.690;9.466;2023-05-10T10:31:47;2.92;;;0.82;;
18973;SDS011;9621;48.690;9.466;2023-05-10T10:34:25;0.70;;;0.70;;
18973;SDS011;9621;48.690;9.466;2023-05-10T10:36:53;2.20;;;0.70;;
18973;SDS011;9621;48.690;9.466;2023-05-10T10:39:22;0.95;;;0.70;;
18973;SDS011;9621;48.690;9.466;2023-05-10T10:41:51;2.63;;;1.10;;
18973;SDS011;9621;48.690;9.466;2023-05-10T10:44:22;1.23;;;0.70;;
18973;SDS011;9621;48.690;9.466;2023-05-10T10:47:00;0.80;;;0.60;;
18973;SDS011;9621;48.690;9.466;2023-05-10T10:49:32;1.90;;;1.02;;
18973;SDS011;9621;48.690;9.466;2023-05-10T10:52:12;2.55;;;0.77;;
18973;SDS011;9621;48.690;9.466;2023-05-10T10:54:40;3.20;;;0.80;;
18973;SDS011;9621;48.690;9.466;2023-05-10T10:57:11;2.65;;;1.00;;
18973;SDS011;9621;48.690;9.466;2023-05-10T10:59:41;3.28;;;0.88;;
18973;SDS011;9621;48.690;9.466;2023-05-10T11:02:09;1.20;;;0.80;;
18973;SDS011;9621;48.690;9.466;2023-05-10T11:04:43;1.80;;;0.80;;
18973;SDS011;9621;48.690;9.466;2023-05-10T11:07:17;3.35;;;0.70;;
18973;SDS011;9621;48.690;9.466;2023-05-10T11:09:46;3.28;;;0.90;;
18973;SDS011;9621;48.690;9.466;2023-05-10T11:12:13;1.00;;;0.55;;
18973;SDS011;9621;48.690;9.466;2023-05-10T11:14:40;1.08;;;0.60;;
18973;SDS011;9621;48.690;9.466;2023-05-10T11:17:23;3.80;;;0.80;;
18973;SDS011;9621;48.690;9.466;2023-05-10T11:20:07;2.17;;;0.60;;
18973;SDS011;9621;48.690;9.466;2023-05-10T11:22:49;4.03;;;0.80;;
18973;SDS011;9621;48.690;9.466;2023-05-10T11:25:16;6.43;;;0.70;;
18973;SDS011;9621;48.690;9.466;2023-05-10T11:27:43;1.08;;;0.70;;
18973;SDS011;9621;48.690;9.466;2023-05-10T11:30:11;4.30;;;0.95;;
18973;SDS011;9621;48.690;9.466;2023-05-10T11:32:39;3.38;;;1.00;;
18973;SDS011;9621;48.690;9.466;2023-05-10T11:35:08;3.45;;;1.20;;
18973;SDS011;9621;48.690;9.466;2023-05-10T11:37:36;3.13;;;0.95;;
18973;SDS011;9621;48.690;9.466;2023-05-10T11:40:07;2.28;;;1.10;;
18973;SDS011;9621;48.690;9.466;2023-05-10T11:42:35;2.78;;;0.98;;
18973;SDS011;9621;48.690;9.466;2023-05-10T11:45:03;0.70;;;0.70;;
18973;SDS011;9621;48.690;9.466;2023-05-10T11:47:32;3.45;;;0.88;;
18973;SDS011;9621;48.690;9.466;2023-05-10T11:50:00;2.28;;;0.95;;
18973;SDS011;9621;48.690;9.466;2023-05-10T11:52:29;1.50;;;0.80;;
18973;SDS011;9621;48.690;9.466;2023-05-10T11:55:01;1.77;;;0.60;;
18973;SDS011;9621;48.690;9.466;2023-05-10T11:57:28;0.60;;;0.60;;
18973;SDS011;9621;48.690;9.466;2023-05-10T11:59:56;3.30;;;0.80;;
18973;SDS011;9621;48.690;9.466;2023-05-10T12:02:23;2.92;;;0.80;;
18973;SDS011;9621;48.690;9.466;2023-05-10T12:04:50;3.83;;;1.00;;
18973;SDS011;9621;48.690;9.466;2023-05-10T12:07:17;2.03;;;0.93;;
18973;SDS011;9621;48.690;9.466;2023-05-10T12:10:01;1.80;;;1.02;;
18973;SDS011;9621;48.690;9.466;2023-05-10T12:12:34;2.47;;;0.90;;
18973;SDS011;9621;48.690;9.466;2023-05-10T12:15:03;1.63;;;0.90;;
18973;SDS011;9621;48.690;9.466;2023-05-10T12:17:31;3.10;;;0.80;;
18973;SDS011;9621;48.690;9.466;2023-05-10T12:19:58;2.58;;;1.10;;
18973;SDS011;9621;48.690;9.466;2023-05-10T12:22:38;3.00;;;1.90;;
18973;SDS011;9621;48.690;9.466;2023-05-10T12:25:07;3.92;;;1.88;;
18973;SDS011;9621;48.690;9.466;2023-05-10T12:27:35;2.15;;;1.60;;
18973;SDS011;9621;48.690;9.466;2023-05-10T12:30:02;5.20;;;1.70;;
18973;SDS011;9621;48.690;9.466;2023-05-10T12:32:39;1.88;;;1.40;;
18973;SDS011;9621;48.690;9.466;2023-05-10T12:35:07;3.53;;;1.52;;
18973;SDS011;9621;48.690;9.466;2023-05-10T12:37:35;4.25;;;1.52;;
18973;SDS011;9621;48.690;9.466;2023-05-10T12:40:07;4.28;;;1.25;;
18973;SDS011;9621;48.690;9.466;2023-05-10T12:42:35;2.67;;;1.23;;
18973;SDS011;9621;48.690;9.466;2023-05-10T12:45:04;3.33;;;1.40;;
18973;SDS011;9621;48.690;9.466;2023-05-10T12:47:31;3.30;;;1.48;;
18973;SDS011;9621;48.690;9.466;2023-05-10T12:49:59;8.32;;;1.83;;
18973;SDS011;9621;48.690;9.466;2023-05-10T12:52:26;8.82;;;1.80;;
18973;SDS011;9621;48.690;9.466;2023-05-10T12:54:54;1.98;;;1.00;;
18973;SDS011;9621;48.690;9.466;2023-05-10T12:57:22;6.00;;;2.05;;
18973;SDS011;9621;48.690;9.466;2023-05-10T12:59:49;3.00;;;1.08;;
18973;SDS011;9621;48.690;9.466;2023-05-10T13:02:16;1.50;;;1.20;;
18973;SDS011;9621;48.690;9.466;2023-05-10T13:04:45;3.58;;;1.15;;
18973;SDS011;9621;48.690;9.466;2023-05-10T13:07:12;2.65;;;1.17;;
18973;SDS011;9621;48.690;9.466;2023-05-10T13:09:39;3.03;;;1.40;;
18973;SDS011;9621;48.690;9.466;2023-05-10T13:12:06;2.28;;;1.83;;
18973;SDS011;9621;48.690;9.466;2023-05-10T13:14:35;3.03;;;1.67;;
18973;SDS011;9621;48.690;9.466;2023-05-10T13:17:01;5.53;;;1.85;;
18973;SDS011;9621;48.690;9.466;2023-05-10T13:19:28;15.82;;;1.75;;
18973;SDS011;9621;48.690;9.466;2023-05-10T13:21:56;2.47;;;1.70;;
18973;SDS011;9621;48.690;9.466;2023-05-10T13:24:23;2.53;;;1.52;;
18973;SDS011;9621;48.690;9.466;2023-05-10T13:26:50;2.97;;;1.40;;
18973;SDS011;9621;48.690;9.466;2023-05-10T13:29:17;3.58;;;1.40;;
18973;SDS011;9621;48.690;9.466;2023-05-10T13:31:45;4.95;;;1.42;;
18973;SDS011;9621;48.690;9.466;2023-05-10T13:34:12;2.72;;;1.00;;
18973;SDS011;9621;48.690;9.466;2023-05-10T13:36:39;2.13;;;1.13;;
18973;SDS011;9621;48.690;9.466;2023-05-10T13:39:06;2.55;;;1.25;;
18973;SDS011;9621;48.690;9.466;2023-05-10T13:41:33;2.65;;;1.10;;
18973;SDS011;9621;48.690;9.466;2023-05-10T13:44:00;2.95;;;1.33;;
18973;SDS011;9621;48.690;9.466;2023-05-10T13:46:27;3.05;;;1.10;;
18973;SDS011;9621;48.690;9.466;2023-05-10T13:48:56;3.65;;;1.35;;
18973;SDS011;9621;48.690;9.466;2023-05-10T13:51:23;4.80;;;1.55;;
18973;SDS011;9621;48.690;9.466;2023-05-10T13:53:49;2.17;;;1.10;;
18973;SDS011;9621;48.690;9.466;2023-05-10T13:56:17;6.40;;;1.02;;
18973;SDS011;9621;48.690;9.466;2023-05-10T13:58:43;5.75;;;1.20;;
18973;SDS011;9621;48.690;9.466;2023-05-10T14:01:10;2.95;;;1.70;;
18973;SDS011;9621;48.690;9.466;2023-05-10T14:03:37;2.17;;;1.33;;
18973;SDS011;9621;48.690;9.466;2023-05-10T14:06:06;2.28;;;1.27;;
18973;SDS011;9621;48.690;9.466;2023-05-10T14:08:33;2.05;;;1.00;;
18973;SDS011;9621;48.690;9.466;2023-05-10T14:11:01;1.48;;;0.98;;
18973;SDS011;9621;48.690;9.466;2023-05-10T14:13:28;2.75;;;0.85;;
18973;SDS011;9621;48.690;9.466;2023-05-10T14:15:55;6.38;;;1.08;;
18973;SDS011;9621;48.690;9.466;2023-05-10T14:18:22;3.28;;;0.90;;
18973;SDS011;9621;48.690;9.466;2023-05-10T14:20:48;3.75;;;1.00;;
18973;SDS011;9621;48.690;9.466;2023-05-10T14:23:17;3.08;;;1.02;;
18973;SDS011;9621;48.690;9.466;2023-05-10T14:25:48;3.25;;;1.10;;
18973;SDS011;9621;48.690;9.466;2023-05-10T14:28:15;2.78;;;1.20;;
18973;SDS011;9621;48.690;9.466;2023-05-10T14:30:43;2.08;;;0.90;;
18973;SDS011;9621;48.690;9.466;2023-05-10T14:33:10;1.52;;;0.90;;
18973;SDS011;9621;48.690;9.466;2023-05-10T14:35:37;2.33;;;1.00;;
18973;SDS011;9621;48.690;9.466;2023-05-10T14:38:04;2.15;;;1.50;;
18973;SDS011;9621;48.690;9.466;2023-05-10T14:40:32;4.00;;;1.30;;
18973;SDS011;9621;48.690;9.466;2023-05-10T14:42:59;6.30;;;1.13;;
18973;SDS011;9621;48.690;9.466;2023-05-10T14:45:26;4.22;;;1.08;;
18973;SDS011;9621;48.690;9.466;2023-05-10T14:47:53;2.05;;;0.90;;
18973;SDS011;9621;48.690;9.466;2023-05-10T14:50:20;1.60;;;0.90;;
18973;SDS011;9621;48.690;9.466;2023-05-10T14:52:47;1.85;;;0.80;;
18973;SDS011;9621;48.690;9.466;2023-05-10T14:55:15;2.53;;;1.10;;
18973;SDS011;9621;48.690;9.466;2023-05-10T14:57:43;2.95;;;1.02;;
18973;SDS011;9621;48.690;9.466;2023-05-10T15:00:12;1.45;;;0.82;;
18973;SDS011;9621;48.690;9.466;2023-05-10T15:02:41;3.42;;;1.20;;
18973;SDS011;9621;48.690;9.466;2023-05-10T15:05:08;2.30;;;0.80;;
18973;SDS011;9621;48.690;9.466;2023-05-10T15:07:35;4.35;;;0.95;;
18973;SDS011;9621;48.690;9.466;2023-05-10T15:10:02;3.67;;;1.05;;
18973;SDS011;9621;48.690;9.466;2023-05-10T15:12:29;4.82;;;1.52;;
18973;SDS011;9621;48.690;9.466;2023-05-10T15:14:58;2.67;;;1.00;;